Time;durP1;ratioP1;P1;durP2;ratioP2;P2;SDS_P1;SDS_P2;PMS_P1;PMS_P2;Temp;Humidity;BMP_temperature;BMP_pressure;BME280_temperature;BME280_humidity;BME280_pressure;Samples;Min_cycle;Max_cycle;Signal;HPM_P1;HPM_P2
2021/05/23 00:00:52;;;;;;;7.10;2.50;;;;;;;10.78;86.18;100044.63;4859960;29;20056;-85
2021/05/23 00:03:18;;;;;;;3.17;2.20;;;;;;;10.68;87.26;100037.91;4888817;29;20424;-86
2021/05/23 00:05:46;;;;;;;3.83;2.10;;;;;;;10.55;87.73;100041.81;4873630;29;20049;-86
2021/05/23 00:08:15;;;;;;;3.00;1.90;;;;;;;10.52;87.54;100032.22;4881697;29;20414;-86
2021/05/23 00:10:57;;;;;;;4.78;2.10;;;;;;;10.52;87.75;100032.22;4885789;29;20052;-86
2021/05/23 00:13:33;;;;;;;2.35;1.80;;;;;;;10.38;88.11;100037.91;4871045;29;20044;-86
2021/05/23 00:16:10;;;;;;;2.95;2.20;;;;;;;10.33;89.64;100044.22;4891234;29;20044;-86
2021/05/23 00:18:41;;;;;;;2.70;1.95;;;;;;;10.26;88.44;100040.91;4902407;29;20440;-86
2021/05/23 00:21:08;;;;;;;2.78;2.00;;;;;;;10.20;88.95;100046.34;4889819;29;20051;-86
2021/05/23 00:23:35;;;;;;;3.22;2.20;;;;;;;10.20;89.79;100045.47;4903938;29;20083;-86
2021/05/23 00:26:03;;;;;;;3.50;2.58;;;;;;;10.25;88.87;100047.06;4887863;29;20057;-86
2021/05/23 00:28:31;;;;;;;5.47;2.50;;;;;;;10.16;89.10;100055.22;4872788;29;20540;-87
2021/05/23 00:30:59;;;;;;;2.80;2.42;;;;;;;10.13;89.78;100063.25;4887085;29;20051;-86
2021/05/23 00:33:25;;;;;;;3.90;2.38;;;;;;;10.13;90.63;100071.16;4899599;29;20078;-85
2021/05/23 00:35:52;;;;;;;4.32;2.10;;;;;;;10.12;89.07;100064.16;4885932;29;20057;-86
2021/05/23 00:38:19;;;;;;;2.85;2.10;;;;;;;10.04;89.84;100064.38;4867562;29;20048;-86
2021/05/23 00:40:46;;;;;;;3.35;2.30;;;;;;;9.96;90.49;100063.72;4874434;29;20070;-85
2021/05/23 00:43:15;;;;;;;3.75;2.72;;;;;;;10.00;89.63;100072.41;4883706;29;20051;-86
2021/05/23 00:45:42;;;;;;;4.30;2.15;;;;;;;10.00;89.71;100070.63;4890162;29;20044;-86
2021/05/23 00:48:09;;;;;;;4.10;1.98;;;;;;;9.96;89.99;100069.00;4886351;29;20053;-86
2021/05/23 00:50:36;;;;;;;4.28;2.30;;;;;;;9.91;91.12;100065.59;4903215;29;20052;-87
2021/05/23 00:53:04;;;;;;;2.78;2.50;;;;;;;9.91;91.02;100070.88;4880804;29;20049;-85
2021/05/23 00:55:31;;;;;;;4.90;2.30;;;;;;;9.85;91.22;100071.94;4866714;29;20052;-85
2021/05/23 00:57:58;;;;;;;3.05;2.22;;;;;;;9.92;90.67;100077.91;4882391;29;20068;-84
2021/05/23 01:00:40;;;;;;;4.03;2.47;;;;;;;9.87;92.06;100085.09;4893579;29;20051;-85
2021/05/23 01:03:28;;;;;;;4.57;2.63;;;;;;;9.80;91.56;100084.38;4882308;29;20068;-84
2021/05/23 01:06:06;;;;;;;5.22;2.28;;;;;;;9.70;92.18;100093.44;4898692;29;20091;-85
2021/05/23 01:08:34;;;;;;;4.88;2.85;;;;;;;9.68;92.74;100092.63;4878878;29;20538;-85
2021/05/23 01:11:05;;;;;;;2.45;2.20;;;;;;;9.68;92.81;100094.41;4880377;29;20037;-84
2021/05/23 01:13:35;;;;;;;3.75;2.78;;;;;;;9.66;93.06;100096.19;4889851;29;20047;-84
2021/05/23 01:16:05;;;;;;;3.00;2.53;;;;;;;9.59;93.62;100098.13;4895657;29;20045;-84
2021/05/23 01:18:59;;;;;;;4.20;2.50;;;;;;;9.54;93.86;100100.88;4882288;29;20053;-85
2021/05/23 01:21:27;;;;;;;3.15;2.42;;;;;;;9.62;93.62;100100.69;4896104;29;20045;-85
2021/05/23 01:23:59;;;;;;;2.80;2.30;;;;;;;9.50;94.03;100107.13;4879954;29;20635;-84
2021/05/23 01:26:33;;;;;;;4.22;2.80;;;;;;;9.46;94.96;100107.25;4899121;29;20075;-85
2021/05/23 01:29:03;;;;;;;4.57;2.55;;;;;;;9.48;95.50;100106.28;4867044;29;20506;-84
2021/05/23 01:31:30;;;;;;;4.68;2.72;;;;;;;9.46;94.94;100107.25;4887979;29;20088;-84
2021/05/23 01:33:58;;;;;;;5.22;3.22;;;;;;;9.50;94.68;100107.13;4866896;29;20052;-84
2021/05/23 01:36:35;;;;;;;4.22;2.92;;;;;;;9.36;95.29;100103.09;4895586;29;20049;-85
2021/05/23 01:39:06;;;;;;;4.38;2.80;;;;;;;9.41;95.37;100102.06;4893246;29;20040;-85
2021/05/23 01:41:34;;;;;;;3.50;2.88;;;;;;;9.48;95.34;100106.28;4880808;29;20045;-85
2021/05/23 01:44:01;;;;;;;7.25;3.63;;;;;;;9.42;95.57;100109.09;4880707;29;20052;-86
2021/05/23 01:46:28;;;;;;;3.88;2.97;;;;;;;9.42;95.51;100117.00;4865537;29;20056;-84
2021/05/23 01:48:55;;;;;;;4.40;3.00;;;;;;;9.36;94.94;100111.00;4865619;29;20049;-85
2021/05/23 01:51:22;;;;;;;6.00;3.72;;;;;;;9.26;95.60;100108.59;4895420;29;20426;-85
2021/05/23 01:53:49;;;;;;;3.58;2.85;;;;;;;9.26;95.85;100113.00;4870653;29;20063;-85
2021/05/23 01:56:16;;;;;;;2.97;2.67;;;;;;;9.20;96.28;100110.50;4878896;29;20056;-85
2021/05/23 01:58:43;;;;;;;5.22;3.40;;;;;;;9.12;96.21;100117.72;4899406;29;20710;-85
2021/05/23 02:01:09;;;;;;;5.25;3.30;;;;;;;9.16;96.97;100117.59;4878320;29;20052;-84
2021/05/23 02:03:36;;;;;;;5.45;3.40;;;;;;;9.20;96.67;100119.28;4896971;29;20534;-85
2021/05/23 02:06:04;;;;;;;5.07;3.38;;;;;;;9.30;96.03;100118.16;4896262;29;20139;-84
2021/05/23 02:08:32;;;;;;;6.45;3.90;;;;;;;9.28;96.18;100121.75;4882107;29;20067;-84
2021/05/23 02:11:07;;;;;;;6.07;3.38;;;;;;;9.26;97.07;100123.56;4872629;29;20048;-85
2021/05/23 02:13:36;;;;;;;5.90;3.60;;;;;;;9.35;96.44;100123.31;4898077;29;20649;-85
2021/05/23 02:16:06;;;;;;;5.72;4.13;;;;;;;9.38;96.56;100130.28;4868404;29;20068;-85
2021/05/23 02:18:33;;;;;;;3.85;3.17;;;;;;;9.39;96.82;100118.84;4881358;29;20054;-85
2021/05/23 02:21:03;;;;;;;5.05;3.78;;;;;;;9.45;96.28;100121.34;4877206;29;20040;-85
2021/05/23 02:23:30;;;;;;;7.22;3.90;;;;;;;9.48;95.58;100121.25;4869398;29;20522;-85
2021/05/23 02:25:57;;;;;;;6.43;3.67;;;;;;;9.47;95.58;100123.03;4881341;29;20044;-85
2021/05/23 02:28:24;;;;;;;6.32;4.32;;;;;;;9.50;95.76;100122.06;4867393;29;20399;-85
2021/05/23 02:30:55;;;;;;;4.47;3.67;;;;;;;9.44;96.62;100120.47;4881838;29;20422;-85
2021/05/23 02:33:23;;;;;;;5.80;4.10;;;;;;;9.42;96.38;100114.38;4867970;29;20655;-86
2021/05/23 02:35:53;;;;;;;4.82;4.10;;;;;;;9.48;96.15;100121.25;4886603;29;20040;-84
2021/05/23 02:38:20;;;;;;;6.30;4.63;;;;;;;9.43;95.05;100123.16;4882287;29;20078;-84
2021/05/23 02:40:47;;;;;;;6.68;4.35;;;;;;;9.40;94.27;100121.44;4882297;29;20045;-85
2021/05/23 02:43:15;;;;;;;7.18;4.18;;;;;;;9.41;94.86;100131.06;4880144;29;20049;-84
2021/05/23 02:45:43;;;;;;;5.45;4.18;;;;;;;9.39;95.25;100132.88;4899345;29;20064;-84
2021/05/23 02:48:10;;;;;;;4.93;4.00;;;;;;;9.32;95.29;100134.78;4867866;29;20049;-85
2021/05/23 02:50:40;;;;;;;6.45;4.13;;;;;;;9.39;95.43;100135.53;4898983;29;20585;-85
2021/05/23 02:53:07;;;;;;;5.13;3.90;;;;;;;9.34;95.81;100137.41;4897034;29;20525;-84
2021/05/23 02:55:36;;;;;;;4.95;3.55;;;;;;;9.35;95.97;100139.16;4901368;29;20139;-85
2021/05/23 02:58:04;;;;;;;5.68;4.07;;;;;;;9.31;96.70;100142.75;4888636;29;20528;-86
2021/05/23 03:00:31;;;;;;;6.10;4.45;;;;;;;9.35;96.92;100136.50;4897329;29;20056;-85
2021/05/23 03:02:58;;;;;;;4.85;4.20;;;;;;;9.30;96.73;100147.16;4886528;29;20040;-84
2021/05/23 03:05:25;;;;;;;7.63;4.70;;;;;;;9.31;97.39;100143.59;4900927;29;20048;-85
2021/05/23 03:07:54;;;;;;;5.38;3.88;;;;;;;9.29;97.26;100139.28;4886214;29;20105;-84
2021/05/23 03:10:31;;;;;;;6.20;4.05;;;;;;;9.25;96.27;100148.19;4886497;29;20062;-85
2021/05/23 03:12:58;;;;;;;7.25;4.60;;;;;;;9.25;95.77;100145.53;4886461;29;20410;-85
2021/05/23 03:15:27;;;;;;;5.28;4.00;;;;;;;9.19;96.36;100154.44;4900856;29;20111;-84
2021/05/23 03:17:54;;;;;;;4.90;4.28;;;;;;;9.18;96.48;100162.41;4910626;29;20048;-85
2021/05/23 03:20:22;;;;;;;8.50;4.82;;;;;;;9.25;94.63;100159.59;4899273;29;20060;-85
2021/05/23 03:22:52;;;;;;;6.93;4.63;;;;;;;9.19;95.35;100159.72;4868716;29;20045;-85
2021/05/23 03:25:19;;;;;;;6.75;5.25;;;;;;;9.12;95.90;100171.28;4899596;29;20626;-85
2021/05/23 03:27:46;;;;;;;6.25;4.63;;;;;;;9.13;96.08;100169.53;4896736;29;20052;-85
2021/05/23 03:30:16;;;;;;;7.10;4.35;;;;;;;9.09;96.90;100167.88;4882762;29;20051;-85
2021/05/23 03:32:43;;;;;;;7.43;4.85;;;;;;;9.26;96.01;100171.88;4868641;29;20049;-85
2021/05/23 03:35:11;;;;;;;5.57;4.15;;;;;;;9.22;95.96;100169.31;4852658;29;20059;-84
2021/05/23 03:37:37;;;;;;;5.38;4.43;;;;;;;9.20;96.93;100165.84;4894581;29;20056;-84
2021/05/23 03:40:06;;;;;;;7.05;4.05;;;;;;;9.29;96.91;100170.91;4897239;29;20049;-84
2021/05/23 03:42:33;;;;;;;5.57;4.25;;;;;;;9.25;96.30;100170.13;4881720;29;20044;-85
2021/05/23 03:45:00;;;;;;;4.93;4.20;;;;;;;9.32;96.30;100173.47;4900939;29;20418;-85
2021/05/23 03:47:27;;;;;;;8.40;4.55;;;;;;;9.43;96.58;100173.25;4954888;23;20099;-84
2021/05/23 03:49:54;;;;;;;7.03;4.78;;;;;;;9.45;95.82;100177.56;4908986;28;20035;-83
2021/05/23 03:52:21;;;;;;;5.28;4.20;;;;;;;9.47;95.58;100177.53;4906157;29;20120;-84
2021/05/23 03:54:48;;;;;;;4.80;4.18;;;;;;;9.50;93.78;100190.63;4934156;29;20212;-84
2021/05/23 03:57:15;;;;;;;5.28;4.22;;;;;;;9.47;94.50;100186.31;4899449;29;20611;-83
2021/05/23 03:59:41;;;;;;;8.43;5.15;;;;;;;9.48;94.62;100193.31;4897138;29;20055;-83
2021/05/23 04:02:08;;;;;;;5.18;4.68;;;;;;;9.41;94.61;100190.84;4913699;29;20441;-83
2021/05/23 04:04:56;;;;;;;5.60;4.35;;;;;;;9.38;95.40;100191.78;4905985;29;20494;-84
2021/05/23 04:07:25;;;;;;;5.13;4.43;;;;;;;9.40;95.43;100199.66;4928942;29;20134;-83
2021/05/23 04:09:53;;;;;;;5.10;4.00;;;;;;;9.45;95.93;100193.38;4930050;29;20398;-84
2021/05/23 04:12:43;;;;;;;5.35;4.10;;;;;;;9.46;95.37;100199.53;4913438;29;20438;-83
2021/05/23 04:15:07;;;;;;;4.68;4.10;;;;;;;9.46;95.78;100200.38;4914951;29;20052;-81
2021/05/23 04:17:35;;;;;;;6.68;4.05;;;;;;;9.64;95.21;100198.22;4917317;29;20130;-84
2021/05/23 04:20:09;;;;;;;4.88;3.80;;;;;;;9.76;94.03;100200.59;4885902;29;20043;-83
2021/05/23 04:22:36;;;;;;;;;;;;;;;9.79;94.14;100193.44;4900931;29;20077;-83
2021/05/23 04:25:12;;;;;;;4.18;3.67;;;;;;;9.85;94.32;100197.72;4915078;29;20002;-85
2021/05/23 04:27:40;;;;;;;8.38;4.15;;;;;;;9.95;93.85;100206.25;4898757;29;20090;-83
2021/05/23 04:30:08;;;;;;;5.28;4.13;;;;;;;10.08;92.94;100205.88;4899042;29;20048;-83
2021/05/23 04:32:35;;;;;;;5.00;4.50;;;;;;;10.18;93.01;100210.97;4900222;29;20044;-82
2021/05/23 04:35:03;;;;;;;7.57;4.30;;;;;;;10.22;91.30;100216.13;4914202;29;20054;-84
2021/05/23 04:37:30;;;;;;;5.32;3.80;;;;;;;10.32;91.51;100211.47;4884451;29;20425;-84
2021/05/23 04:39:58;;;;;;;5.30;3.58;;;;;;;10.27;90.71;100216.03;4899725;29;20048;-83
2021/05/23 04:42:24;;;;;;;4.68;4.15;;;;;;;10.26;91.61;100215.16;4927137;29;20043;-83
2021/05/23 04:45:12;;;;;;;4.97;4.20;;;;;;;10.34;89.73;100210.56;4904529;29;20052;-82
2021/05/23 04:47:38;;;;;;;3.92;3.53;;;;;;;10.30;91.64;100222.09;4886182;29;20073;-83
2021/05/23 04:50:08;;;;;;;5.65;3.88;;;;;;;10.32;90.87;100224.69;4898262;29;20048;-84
2021/05/23 04:52:35;;;;;;;5.25;4.03;;;;;;;10.33;91.94;100221.13;4905874;29;20508;-84
2021/05/23 04:55:03;;;;;;;6.20;4.38;;;;;;;10.40;91.49;100227.97;4900002;29;20052;-83
2021/05/23 04:57:30;;;;;;;5.63;4.05;;;;;;;10.43;89.67;100228.78;4904739;29;20468;-83
2021/05/23 04:59:58;;;;;;;7.07;3.97;;;;;;;10.36;90.74;100229.84;4920199;29;20745;-83
2021/05/23 05:02:24;;;;;;;6.22;4.45;;;;;;;10.41;90.61;100240.28;4905135;29;20047;-83
2021/05/23 05:04:51;;;;;;;5.45;3.85;;;;;;;10.38;91.17;100237.72;4916109;29;20637;-84
2021/05/23 05:07:18;;;;;;;4.57;3.83;;;;;;;10.45;90.76;100247.22;4906423;29;20055;-83
2021/05/23 05:09:45;;;;;;;6.05;3.78;;;;;;;10.46;90.36;100248.97;4880697;29;20482;-82
2021/05/23 05:12:12;;;;;;;6.63;4.20;;;;;;;10.55;89.29;100253.13;4920321;29;20047;-83
2021/05/23 05:14:38;;;;;;;5.57;4.28;;;;;;;10.61;89.54;100264.41;4899476;29;20055;-83
2021/05/23 05:17:05;;;;;;;4.72;4.18;;;;;;;10.51;89.49;100264.66;4921046;29;20048;-84
2021/05/23 05:19:32;;;;;;;4.80;4.10;;;;;;;10.44;89.58;100269.25;4899749;29;20074;-83
2021/05/23 05:21:59;;;;;;;5.75;4.15;;;;;;;10.60;88.73;100275.00;4913207;29;20099;-83
2021/05/23 05:24:25;;;;;;;7.88;4.57;;;;;;;10.61;89.24;100274.09;4916013;29;20044;-84
2021/05/23 05:26:52;;;;;;;5.18;4.15;;;;;;;10.62;89.50;100271.41;4916339;29;20052;-83
2021/05/23 05:29:19;;;;;;;4.95;3.83;;;;;;;10.63;89.51;100280.19;4911750;29;20130;-83
2021/05/23 05:31:45;;;;;;;4.72;3.80;;;;;;;10.68;88.59;100271.25;4916568;29;20564;-83
2021/05/23 05:34:12;;;;;;;6.47;4.32;;;;;;;10.69;89.32;100265.06;4887207;29;20040;-83
2021/05/23 05:36:38;;;;;;;6.20;4.78;;;;;;;10.75;90.20;100276.34;4896753;29;20051;-83
2021/05/23 05:39:06;;;;;;;5.15;4.38;;;;;;;10.85;88.05;100272.56;4897770;29;20044;-84
2021/05/23 05:41:33;;;;;;;4.80;3.75;;;;;;;10.81;88.12;100274.41;4910352;29;20051;-84
2021/05/23 05:43:59;;;;;;;6.53;4.40;;;;;;;10.90;87.91;100276.78;4887191;29;20047;-84
2021/05/23 05:46:26;;;;;;;4.80;4.28;;;;;;;10.88;88.87;100283.03;4902964;29;20054;-84
2021/05/23 05:48:53;;;;;;;6.20;4.43;;;;;;;11.05;86.80;100288.72;4900025;29;20094;-83
2021/05/23 05:51:19;;;;;;;7.30;4.28;;;;;;;11.10;87.11;100292.13;4916307;29;20051;-84
2021/05/23 05:53:46;;;;;;;5.43;4.30;;;;;;;11.15;89.31;100289.31;4901875;29;20047;-83
2021/05/23 05:56:13;;;;;;;6.70;4.30;;;;;;;11.27;90.25;100291.63;4906415;29;20053;-84
2021/05/23 05:58:40;;;;;;;4.35;3.90;;;;;;;11.34;87.76;100293.16;4916728;29;20107;-82
2021/05/23 06:01:07;;;;;;;5.65;4.00;;;;;;;11.37;87.91;100294.88;4934075;29;20110;-84
2021/05/23 06:03:33;;;;;;;6.22;4.40;;;;;;;11.46;86.88;100294.59;4918294;29;20047;-84
2021/05/23 06:06:00;;;;;;;5.68;3.50;;;;;;;11.42;86.50;100299.09;4909403;29;20722;-83
2021/05/23 06:08:27;;;;;;;4.63;3.63;;;;;;;11.44;86.28;100309.66;4901097;29;20135;-84
2021/05/23 06:10:54;;;;;;;4.88;3.63;;;;;;;11.35;86.79;100305.50;4929057;29;20479;-83
2021/05/23 06:13:20;;;;;;;4.50;3.70;;;;;;;11.35;87.53;100309.88;4901870;29;20039;-81
2021/05/23 06:15:47;;;;;;;4.55;3.85;;;;;;;11.39;88.67;100316.84;4886950;29;20442;-82
2021/05/23 06:18:13;;;;;;;5.07;4.47;;;;;;;11.48;84.02;100313.94;4907151;29;20048;-84
2021/05/23 06:20:40;;;;;;;4.75;4.13;;;;;;;11.48;84.96;100313.94;4900547;29;20130;-82
2021/05/23 06:23:07;;;;;;;5.00;3.53;;;;;;;11.55;86.90;100312.84;4884819;29;20044;-82
2021/05/23 06:25:34;;;;;;;4.75;4.22;;;;;;;11.63;84.28;100317.91;4884465;29;20059;-83
2021/05/23 06:28:00;;;;;;;6.63;4.63;;;;;;;11.70;83.41;100325.59;4884088;29;20148;-82
2021/05/23 06:30:27;;;;;;;4.95;3.83;;;;;;;11.76;82.78;100327.19;4904552;29;20091;-83
2021/05/23 06:32:54;;;;;;;6.03;3.80;;;;;;;11.75;84.73;100328.97;4899876;29;20043;-84
2021/05/23 06:35:21;;;;;;;6.47;3.95;;;;;;;11.88;83.50;100323.34;4928577;29;20040;-81
2021/05/23 06:37:47;;;;;;;5.80;4.32;;;;;;;11.88;81.94;100332.16;4888341;29;20099;-84
2021/05/23 06:40:14;;;;;;;6.07;3.65;;;;;;;11.82;81.79;100333.19;4885512;29;20134;-82
2021/05/23 06:42:41;;;;;;;4.43;3.65;;;;;;;11.80;81.67;100335.03;4886336;29;20413;-83
2021/05/23 06:45:08;;;;;;;4.78;3.40;;;;;;;11.68;80.59;100337.13;4885693;29;20048;-83
2021/05/23 06:47:34;;;;;;;6.55;4.15;;;;;;;11.71;84.00;100347.66;4903111;29;20076;-83
2021/05/23 06:50:02;;;;;;;4.35;3.50;;;;;;;11.68;82.40;100356.50;4888949;29;20071;-83
2021/05/23 06:52:29;;;;;;;5.35;3.55;;;;;;;11.61;83.39;100355.00;4913223;29;20068;-83
2021/05/23 06:54:56;;;;;;;4.70;3.78;;;;;;;11.52;83.03;100356.13;4929261;29;20075;-83
2021/05/23 06:57:22;;;;;;;4.47;3.38;;;;;;;11.59;82.26;100362.09;4925974;29;20111;-85
2021/05/23 06:59:51;;;;;;;5.32;3.40;;;;;;;11.59;82.36;100359.44;4896919;29;20611;-83
2021/05/23 07:02:18;;;;;;;6.50;3.88;;;;;;;11.62;82.05;100362.00;4901937;29;20071;-83
2021/05/23 07:04:44;;;;;;;3.22;2.92;;;;;;;11.54;82.93;100370.16;4910743;29;20043;-84
2021/05/23 07:07:11;;;;;;;4.75;3.25;;;;;;;11.49;83.68;100369.44;4903980;29;20055;-85
2021/05/23 07:09:39;;;;;;;3.22;2.75;;;;;;;11.59;82.50;100374.44;4901651;29;20048;-83
2021/05/23 07:12:07;;;;;;;3.92;3.13;;;;;;;11.59;80.62;100377.97;4903684;29;20513;-83
2021/05/23 07:14:36;;;;;;;5.25;3.20;;;;;;;11.56;84.37;100378.06;4931005;29;20056;-83
2021/05/23 07:17:06;;;;;;;4.05;2.85;;;;;;;11.47;83.95;100386.25;4915715;29;20135;-83
2021/05/23 07:19:33;;;;;;;5.00;3.22;;;;;;;11.42;84.94;100380.22;4908339;29;20047;-83
2021/05/23 07:22:00;;;;;;;4.97;4.15;;;;;;;11.31;84.89;100385.81;4913321;29;20048;-85
2021/05/23 07:24:27;;;;;;;6.18;3.60;;;;;;;11.19;86.72;100392.34;4890472;29;20040;-85
2021/05/23 07:26:53;;;;;;;4.35;3.58;;;;;;;11.29;89.20;100395.59;4918565;29;20047;-86
2021/05/23 07:29:20;;;;;;;4.72;3.78;;;;;;;11.32;90.83;100395.50;4918572;29;20052;-83
2021/05/23 07:31:47;;;;;;;6.60;3.92;;;;;;;11.23;90.47;100403.69;4907173;29;20145;-84
2021/05/23 07:34:14;;;;;;;6.63;4.63;;;;;;;11.19;90.15;100400.25;4890384;29;20043;-84
2021/05/23 07:36:41;;;;;;;6.28;4.30;;;;;;;11.02;91.80;100407.78;4914143;29;20044;-85
2021/05/23 07:39:08;;;;;;;7.38;5.22;;;;;;;11.02;93.98;100406.91;4888769;29;20114;-84
2021/05/23 07:41:34;;;;;;;6.07;4.68;;;;;;;11.00;93.83;100404.28;4904015;29;20047;-85
2021/05/23 07:44:01;;;;;;;7.72;4.45;;;;;;;10.97;93.51;100405.25;4906712;29;20048;-84
2021/05/23 07:46:28;;;;;;;4.82;4.18;;;;;;;10.97;95.20;100415.81;4908679;29;20532;-84
2021/05/23 07:48:55;;;;;;;6.88;3.83;;;;;;;10.94;94.55;100421.19;4936303;29;20047;-85
2021/05/23 07:51:21;;;;;;;6.15;3.42;;;;;;;10.94;94.85;100415.03;4907662;29;20063;-84
2021/05/23 07:53:48;;;;;;;3.80;3.33;;;;;;;10.88;96.13;100428.41;4929698;29;20126;-84
2021/05/23 07:56:15;;;;;;;4.43;4.03;;;;;;;10.89;94.90;100424.84;4908834;29;20048;-84
2021/05/23 07:58:42;;;;;;;5.50;4.10;;;;;;;10.77;96.54;100430.47;4914395;29;20054;-85
2021/05/23 08:01:08;;;;;;;4.60;4.07;;;;;;;10.69;96.89;100430.66;4932958;29;20052;-84
2021/05/23 08:04:03;;;;;;;7.30;5.60;;;;;;;10.66;96.93;100428.91;4917058;29;20051;-85
2021/05/23 08:06:46;;;;;;;8.82;6.45;;;;;;;10.65;97.87;100439.53;4903129;29;20145;-85
2021/05/23 08:09:13;;;;;;;9.60;5.63;;;;;;;10.54;97.75;100437.16;4894287;29;20044;-86
2021/05/23 08:11:40;;;;;;;5.63;4.47;;;;;;;10.52;98.51;100431.06;4902087;29;20048;-85
2021/05/23 08:14:10;;;;;;;5.55;4.18;;;;;;;10.55;99.48;100438.91;4903697;29;20055;-85
2021/05/23 08:16:37;;;;;;;6.13;4.50;;;;;;;10.67;100.00;100435.06;4895577;29;20535;-85
2021/05/23 08:19:04;;;;;;;6.80;5.32;;;;;;;10.84;100.00;100442.59;4895124;29;20043;-86
2021/05/23 08:21:32;;;;;;;4.32;3.83;;;;;;;10.94;99.25;100444.97;4900092;29;20123;-85
2021/05/23 08:23:59;;;;;;;4.60;3.90;;;;;;;10.98;100.00;100437.81;4932717;29;20050;-85
2021/05/23 08:26:25;;;;;;;6.18;4.82;;;;;;;11.18;100.00;100442.59;4919122;29;20139;-85
2021/05/23 08:28:52;;;;;;;4.57;4.00;;;;;;;11.16;99.11;100447.91;4917301;29;20146;-86
2021/05/23 08:31:19;;;;;;;5.13;3.78;;;;;;;11.05;98.81;100443.84;4896290;29;20100;-84
2021/05/23 08:33:45;;;;;;;5.20;3.65;;;;;;;10.96;100.00;100455.50;4902074;29;20048;-86
2021/05/23 08:36:12;;;;;;;3.63;3.22;;;;;;;10.94;100.00;100437.06;4914595;29;20051;-85
2021/05/23 08:39:16;;;;;;;4.20;3.10;;;;;;;11.02;100.00;100438.63;4914948;29;20063;-85
2021/05/23 08:41:53;;;;;;;4.38;3.50;;;;;;;11.31;99.46;100440.50;4901705;29;20064;-85
2021/05/23 08:44:27;;;;;;;4.75;3.28;;;;;;;11.57;100.00;100459.16;4875095;29;20048;-86
2021/05/23 08:47:10;;;;;;;6.03;3.15;;;;;;;11.78;99.51;100458.56;4900600;29;20192;-85
2021/05/23 08:49:51;;;;;;;5.90;4.85;;;;;;;12.14;100.00;100454.91;4946857;29;20048;-85
2021/05/23 08:52:19;;;;;;;4.63;4.10;;;;;;;12.31;94.00;100453.50;4898772;29;20072;-85
2021/05/23 08:54:48;;;;;;;4.18;3.35;;;;;;;12.42;95.08;100454.94;4911126;29;20050;-86
2021/05/23 08:57:23;;;;;;;4.32;3.83;;;;;;;12.43;93.39;100451.38;4911826;29;20048;-84
2021/05/23 08:59:57;;;;;;;4.00;3.60;;;;;;;12.46;93.62;100454.81;4924039;29;20043;-87
2021/05/23 09:02:28;;;;;;;4.22;3.63;;;;;;;12.66;95.87;100454.16;4884031;29;20048;-86
2021/05/23 09:04:56;;;;;;;4.43;4.00;;;;;;;12.65;91.86;100457.72;4903433;29;20043;-86
2021/05/23 09:07:26;;;;;;;4.25;3.42;;;;;;;12.73;92.50;100453.03;4907863;29;20134;-86
2021/05/23 09:10:04;;;;;;;4.68;3.80;;;;;;;12.75;92.35;100460.94;4899501;29;20099;-86
2021/05/23 09:12:33;;;;;;;3.83;3.25;;;;;;;12.74;88.00;100457.44;4918376;29;20052;-87
2021/05/23 09:15:04;;;;;;;4.75;4.18;;;;;;;12.74;88.98;100464.50;4921735;29;20494;-86
2021/05/23 09:17:31;;;;;;;6.88;3.95;;;;;;;12.99;91.79;100457.47;4904073;29;20070;-86
2021/05/23 09:19:58;;;;;;;5.60;3.35;;;;;;;13.18;90.74;100463.03;4913523;29;20144;-86
2021/05/23 09:22:26;;;;;;;4.53;3.33;;;;;;;13.31;87.47;100466.16;4897329;29;20044;-85
2021/05/23 09:24:57;;;;;;;4.53;3.50;;;;;;;13.30;87.30;100465.31;4917551;29;20043;-86
2021/05/23 09:27:27;;;;;;;4.15;2.80;;;;;;;13.37;81.07;100469.47;4905116;29;20060;-85
2021/05/23 09:30:18;;;;;;;4.03;3.05;;;;;;;13.62;83.50;100481.84;4904912;29;20075;-86
2021/05/23 09:32:46;;;;;;;2.95;2.65;;;;;;;13.65;82.12;100487.94;4918767;29;20068;-87
2021/05/23 09:35:15;;;;;;;3.25;2.80;;;;;;;13.57;81.62;100491.78;4892020;29;20498;-86
2021/05/23 09:37:42;;;;;;;3.17;2.75;;;;;;;13.60;85.07;100502.28;4887581;29;20386;-85
2021/05/23 09:40:20;;;;;;;3.30;2.97;;;;;;;13.55;83.54;100494.50;4916661;29;20039;-84
2021/05/23 09:42:49;;;;;;;4.68;3.38;;;;;;;13.44;82.93;100502.81;4901412;29;20047;-83
2021/05/23 09:45:16;;;;;;;3.28;2.83;;;;;;;13.41;83.75;100500.28;4919489;29;20040;-85
2021/05/23 09:47:59;;;;;;;3.22;2.70;;;;;;;13.36;80.95;100509.31;4902938;29;20325;-86
2021/05/23 09:50:37;;;;;;;3.13;2.83;;;;;;;13.40;80.28;100510.94;4914026;29;20052;-85
2021/05/23 09:53:31;;;;;;;2.70;2.45;;;;;;;13.46;80.57;100524.88;4992050;23;20087;31
2021/05/23 09:56:06;;;;;;;3.08;2.65;;;;;;;13.78;80.04;100513.09;4889798;29;20105;-84
2021/05/23 09:58:39;;;;;;;4.20;2.65;;;;;;;14.19;80.16;100507.19;4934217;29;20078;-84
2021/05/23 10:01:08;;;;;;;3.92;2.63;;;;;;;14.47;80.09;100497.28;4917560;29;20075;-85
2021/05/23 10:03:40;;;;;;;2.63;2.42;;;;;;;14.68;73.25;100489.38;4921790;29;20071;-84
2021/05/23 10:06:08;;;;;;;5.80;3.25;;;;;;;15.01;74.93;100480.03;4908899;29;20052;-83
2021/05/23 10:08:36;;;;;;;5.57;2.80;;;;;;;15.38;76.71;100484.66;4901462;29;20043;-83
2021/05/23 10:11:02;;;;;;;4.38;2.78;;;;;;;15.56;68.96;100474.16;4883641;29;20052;-81
2021/05/23 10:13:29;;;;;;;4.47;2.72;;;;;;;15.79;68.68;100479.34;4902344;29;20036;-82
2021/05/23 10:15:56;;;;;;;4.60;2.60;;;;;;;15.98;68.63;100482.94;4918120;29;20094;-82
2021/05/23 10:18:28;;;;;;;3.03;2.50;;;;;;;15.83;69.65;100490.75;4923886;29;20048;-82
2021/05/23 10:20:57;;;;;;;2.50;2.08;;;;;;;16.29;68.75;100485.03;4903871;29;20123;-81
2021/05/23 10:23:40;;;;;;;3.20;2.40;;;;;;;16.19;62.85;100489.06;4885625;29;20050;-81
2021/05/23 10:26:09;;;;;;;2.72;2.33;;;;;;;16.18;65.49;100491.78;4903052;29;20409;-81
2021/05/23 10:28:43;;;;;;;3.15;2.65;;;;;;;16.09;67.53;100497.56;4923525;29;20043;-81
2021/05/23 10:31:13;;;;;;;3.28;2.58;;;;;;;16.02;65.34;100497.81;4901670;29;20048;-82
2021/05/23 10:33:53;;;;;;;4.40;2.70;;;;;;;15.75;63.74;100505.25;4918245;29;20051;-82
2021/05/23 10:36:38;;;;;;;4.93;2.85;;;;;;;15.69;65.96;100505.53;4925876;29;20066;-81
2021/05/23 10:39:14;;;;;;;2.90;2.60;;;;;;;15.61;67.32;100510.31;4929318;29;20115;-81
2021/05/23 10:41:41;;;;;;;3.33;2.85;;;;;;;15.34;68.46;100524.78;4906823;29;20060;-81
2021/05/23 10:44:22;;;;;;;4.78;2.75;;;;;;;15.20;66.27;100523.56;4909326;29;20032;-82
2021/05/23 10:46:50;;;;;;;3.63;3.22;;;;;;;15.01;69.20;100522.59;4900211;29;20075;-81
2021/05/23 10:49:18;;;;;;;4.60;2.90;;;;;;;14.87;70.19;100517.81;4892117;29;20083;-83
2021/05/23 10:51:56;;;;;;;3.30;3.00;;;;;;;14.74;68.59;100519.25;4921857;29;20058;-81
2021/05/23 10:54:23;;;;;;;2.60;2.40;;;;;;;14.70;69.56;100524.75;4921780;29;20032;-81
2021/05/23 10:57:04;;;;;;;2.97;2.50;;;;;;;14.78;71.24;100528.84;4920932;29;20566;-81
2021/05/23 10:59:31;;;;;;;2.85;2.30;;;;;;;14.84;72.51;100527.75;4930734;29;20061;-81
2021/05/23 11:01:59;;;;;;;2.97;2.42;;;;;;;14.77;69.66;100531.56;4929104;29;20414;-81
2021/05/23 11:04:39;;;;;;;4.30;3.22;;;;;;;15.05;70.81;100525.97;4904955;29;20050;-81
2021/05/23 11:07:10;;;;;;;2.65;2.40;;;;;;;15.26;69.70;100522.44;4920201;29;20044;-82
2021/05/23 11:09:38;;;;;;;12.50;11.10;;;;;;;15.29;70.27;100532.09;4896866;29;20515;-81
2021/05/23 11:12:10;;;;;;;3.22;2.92;;;;;;;15.30;68.80;100529.38;4922240;29;20111;-82
2021/05/23 11:14:37;;;;;;;5.45;2.80;;;;;;;15.26;67.16;100532.22;4910297;29;20074;-81
2021/05/23 11:17:07;;;;;;;3.38;2.95;;;;;;;15.57;72.59;100534.47;4904304;29;20156;-82
2021/05/23 11:19:35;;;;;;;3.47;3.17;;;;;;;15.86;68.31;100531.41;4902743;29;20509;-84
2021/05/23 11:22:02;;;;;;;3.22;2.70;;;;;;;15.82;64.60;100536.97;4904101;29;20062;-82
2021/05/23 11:24:32;;;;;;;3.65;3.03;;;;;;;16.31;65.52;100517.81;4921849;29;20561;-84
2021/05/23 11:27:12;;;;;;;2.85;2.60;;;;;;;16.69;64.03;100527.66;4905301;29;20048;-83
2021/05/23 11:29:44;;;;;;;2.75;2.50;;;;;;;16.74;59.90;100534.50;4902958;29;20111;-83
2021/05/23 11:32:12;;;;;;;2.30;2.10;;;;;;;16.82;59.83;100534.13;4918505;29;20039;-83
2021/05/23 11:34:39;;;;;;;3.97;3.10;;;;;;;16.72;60.00;100536.34;4919657;29;20081;-84
2021/05/23 11:37:06;;;;;;;7.18;4.32;;;;;;;16.74;60.60;100537.16;4915504;29;20394;-83